This demonstration page uses our WeatherBlox Daily Observations layout. Learn more.

41.55636, -103.73856

Hourly Observations for April 16, 2019

Temp ( °F °C ) Dew Point ( °F °C ) Humidity (%) Winds ( mph kmh ) Pressure ( in mb ) Visibility ( mi km ) Precip ( " mm )
12:58 am 00:58 Mostly Cloudy 53 11.5 41 5.2 66 66 ENE 9 15 29.72 1007 10 16.0934 0 0
1:58 am 01:58 Mostly Cloudy 49 9.7 42 5.5 75 75 E 9 15 29.72 1007 10 16.0934 0 0
2:58 am 02:58 Mostly Cloudy 48 8.9 42 5.4 79 79 E 10 17 29.73 1007 10 16.0934 0 0
3:58 am 03:58 Mostly Clear 46 7.5 41 5.2 86 86 Calm 29.75 1008 10 16.0934 0 0
4:58 am 04:58 Mostly Cloudy 46 7.7 40 4.7 82 82 SE 3 6 29.76 1008 10 16.0934 0 0
5:58 am 05:58 Clear 41 4.8 38 3.2 90 90 W 5 7 29.77 1008 10 16.0934 0 0
6:58 am 06:58 Clear 46 7.6 39 3.9 78 78 SE 3 6 29.78 1009 10 16.0934 0 0
7:58 am 07:58 Clear 40 4.3 37 2.5 88 88 S 10 17 29.81 1010 10 16.0934 0 0
8:58 am 08:58 Clear 40 4.3 36 2.3 87 87 S 9 15 29.8 1009 10 16.0934 0 0
9:58 am 09:58 Clear 40 4.2 36 2.3 88 88 SSW 9 15 29.8 1009 10 16.0934 0 0
10:58 am 10:58 Clear 39 4.1 35 1.9 86 86 SW 10 17 29.8 1009 10 16.0934 0 0
11:58 am 11:58 Mostly Clear 38 3.5 35 1.5 87 87 SSW 13 20 29.8 1009 10 16.0934 0 0
12:58 pm 12:58 Mostly Cloudy 40 4.6 36 2.2 85 85 S 14 22 29.81 1010 10 16.0934 0 0
1:58 pm 13:58 Mostly Sunny 43 5.9 38 3.4 84 84 S 15 24 29.81 1010 10 16.0934 0 0
2:58 pm 14:58 Sunny 44 6.6 39 3.7 82 82 S 17 28 29.8 1009 10 16.0934 0 0
3:58 pm 15:58 Sunny 46 7.9 40 4.4 79 79 S 18 30 29.8 1009 10 16.0934 0 0
4:58 pm 16:58 Sunny 51 10.3 41 4.8 69 69 S 23 37 29.8 1009 10 16.0934 0 0
5:58 pm 17:58 Mostly Cloudy 53 11.6 41 5 64 64 S 25 41 29.79 1009 10 16.0934 0 0
6:58 pm 18:58 Mostly Sunny 54 12.3 42 5.5 63 63 S 24 39 29.74 1007 10 16.0934 0 0
7:59 pm 19:59 Sunny 55 12.5 43 5.9 64 64 S 23 37 29.74 1007 10 16.0934 0 0
8:58 pm 20:58 Sunny 56 13.1 42 5.5 60 60 S 23 37 29.72 1007 10 16.0934 0 0
9:58 pm 21:58 Sunny 57 13.9 42 5.6 58 58 S 15 24 29.7 1006 10 16.0934 0 0
10:58 pm 22:58 Sunny 59 14.8 42 5.8 55 55 S 17 28 29.68 1005 10 16.0934 0 0
11:58 pm 23:58 Mostly Sunny 58 14.3 42 5.6 56 56 S 16 26 29.7 1006 10 16.0934 0 0

Powered by AerisWeather